sensor_id;sensor_type;location;lat;lon;timestamp;temperature;humidity
43414;DHT22;29013;49.676;8.606;2023-02-28T00:04:33;2.0;88.4
43414;DHT22;29013;49.676;8.606;2023-02-28T00:10:16;2.0;89.2
43414;DHT22;29013;49.676;8.606;2023-02-28T00:15:38;1.9;87.8
43414;DHT22;29013;49.676;8.606;2023-02-28T00:20:59;1.7;88.3
43414;DHT22;29013;49.676;8.606;2023-02-28T00:26:20;1.6;89.7
43414;DHT22;29013;49.676;8.606;2023-02-28T00:31:58;1.4;90.3
43414;DHT22;29013;49.676;8.606;2023-02-28T00:37:22;1.5;90.3
43414;DHT22;29013;49.676;8.606;2023-02-28T00:42:45;1.5;90.4
43414;DHT22;29013;49.676;8.606;2023-02-28T00:48:08;1.5;90.4
43414;DHT22;29013;49.676;8.606;2023-02-28T00:53:31;1.5;90.6
43414;DHT22;29013;49.676;8.606;2023-02-28T00:58:54;1.4;91.0
43414;DHT22;29013;49.676;8.606;2023-02-28T01:04:35;1.3;91.3
43414;DHT22;29013;49.676;8.606;2023-02-28T01:09:56;1.5;91.1
43414;DHT22;29013;49.676;8.606;2023-02-28T01:15:20;1.6;91.1
43414;DHT22;29013;49.676;8.606;2023-02-28T01:20:44;1.6;91.4
43414;DHT22;29013;49.676;8.606;2023-02-28T01:26:10;1.6;91.5
43414;DHT22;29013;49.676;8.606;2023-02-28T01:31:33;1.6;91.5
43414;DHT22;29013;49.676;8.606;2023-02-28T01:36:51;1.5;91.5
43414;DHT22;29013;49.676;8.606;2023-02-28T01:42:16;1.5;91.5
43414;DHT22;29013;49.676;8.606;2023-02-28T01:47:41;1.2;91.3
43414;DHT22;29013;49.676;8.606;2023-02-28T01:53:06;1.1;91.6
43414;DHT22;29013;49.676;8.606;2023-02-28T01:58:30;1.0;91.9
43414;DHT22;29013;49.676;8.606;2023-02-28T02:03:53;0.9;91.9
43414;DHT22;29013;49.676;8.606;2023-02-28T02:09:17;0.9;92.5
43414;DHT22;29013;49.676;8.606;2023-02-28T02:14:50;0.8;92.5
43414;DHT22;29013;49.676;8.606;2023-02-28T02:20:46;1.0;93.4
43414;DHT22;29013;49.676;8.606;2023-02-28T02:26:26;1.3;92.7
43414;DHT22;29013;49.676;8.606;2023-02-28T02:32:12;1.4;92.5
43414;DHT22;29013;49.676;8.606;2023-02-28T02:37:36;1.4;92.6
43414;DHT22;29013;49.676;8.606;2023-02-28T02:42:55;1.4;92.6
43414;DHT22;29013;49.676;8.606;2023-02-28T02:48:14;1.4;92.7
43414;DHT22;29013;49.676;8.606;2023-02-28T02:53:38;1.3;92.5
43414;DHT22;29013;49.676;8.606;2023-02-28T02:58:54;1.1;92.5
43414;DHT22;29013;49.676;8.606;2023-02-28T03:04:16;1.1;92.8
43414;DHT22;29013;49.676;8.606;2023-02-28T03:09:38;1.0;92.8
43414;DHT22;29013;49.676;8.606;2023-02-28T03:15:03;0.9;93.1
43414;DHT22;29013;49.676;8.606;2023-02-28T03:20:23;1.0;93.2
43414;DHT22;29013;49.676;8.606;2023-02-28T03:25:41;1.1;93.2
43414;DHT22;29013;49.676;8.606;2023-02-28T03:30:59;1.1;93.5
43414;DHT22;29013;49.676;8.606;2023-02-28T03:36:22;1.1;93.4
43414;DHT22;29013;49.676;8.606;2023-02-28T03:41:47;1.1;93.2
43414;DHT22;29013;49.676;8.606;2023-02-28T03:47:11;1.1;93.5
43414;DHT22;29013;49.676;8.606;2023-02-28T03:52:33;1.0;93.7
43414;DHT22;29013;49.676;8.606;2023-02-28T03:57:58;1.0;94.3
43414;DHT22;29013;49.676;8.606;2023-02-28T04:03:19;1.1;94.1
43414;DHT22;29013;49.676;8.606;2023-02-28T04:08:36;1.2;93.6
43414;DHT22;29013;49.676;8.606;2023-02-28T04:14:11;1.2;94.0
43414;DHT22;29013;49.676;8.606;2023-02-28T04:19:29;1.3;93.4
43414;DHT22;29013;49.676;8.606;2023-02-28T04:24:47;1.2;93.9
43414;DHT22;29013;49.676;8.606;2023-02-28T04:30:14;1.1;93.8
43414;DHT22;29013;49.676;8.606;2023-02-28T04:35:32;1.2;94.4
43414;DHT22;29013;49.676;8.606;2023-02-28T04:40:58;1.2;94.0
43414;DHT22;29013;49.676;8.606;2023-02-28T04:46:23;1.2;94.0
43414;DHT22;29013;49.676;8.606;2023-02-28T04:51:45;1.1;93.9
43414;DHT22;29013;49.676;8.606;2023-02-28T04:57:04;1.1;94.0
43414;DHT22;29013;49.676;8.606;2023-02-28T05:02:28;1.1;94.1
43414;DHT22;29013;49.676;8.606;2023-02-28T05:07:51;0.9;93.9
43414;DHT22;29013;49.676;8.606;2023-02-28T05:13:11;0.9;94.1
43414;DHT22;29013;49.676;8.606;2023-02-28T05:18:29;0.9;94.3
43414;DHT22;29013;49.676;8.606;2023-02-28T05:23:48;0.8;94.3
43414;DHT22;29013;49.676;8.606;2023-02-28T05:29:11;0.8;94.6
43414;DHT22;29013;49.676;8.606;2023-02-28T05:34:28;0.9;94.5
43414;DHT22;29013;49.676;8.606;2023-02-28T05:39:48;0.9;94.3
43414;DHT22;29013;49.676;8.606;2023-02-28T05:45:13;0.8;94.4
43414;DHT22;29013;49.676;8.606;2023-02-28T05:50:36;0.9;94.7
43414;DHT22;29013;49.676;8.606;2023-02-28T05:55:55;0.9;94.7
43414;DHT22;29013;49.676;8.606;2023-02-28T06:01:27;1.1;95.4
43414;DHT22;29013;49.676;8.606;2023-02-28T06:06:42;1.1;95.1
43414;DHT22;29013;49.676;8.606;2023-02-28T06:12:01;1.1;94.7
43414;DHT22;29013;49.676;8.606;2023-02-28T06:17:19;1.2;94.1
43414;DHT22;29013;49.676;8.606;2023-02-28T06:23:08;1.1;94.6
43414;DHT22;29013;49.676;8.606;2023-02-28T06:28:31;1.2;94.0
43414;DHT22;29013;49.676;8.606;2023-02-28T06:33:54;1.1;93.9
43414;DHT22;29013;49.676;8.606;2023-02-28T06:39:20;1.0;94.1
43414;DHT22;29013;49.676;8.606;2023-02-28T06:44:43;1.1;94.2
43414;DHT22;29013;49.676;8.606;2023-02-28T06:50:09;1.2;94.2
43414;DHT22;29013;49.676;8.606;2023-02-28T06:55:30;1.3;94.1
43414;DHT22;29013;49.676;8.606;2023-02-28T07:00:54;1.5;94.0
43414;DHT22;29013;49.676;8.606;2023-02-28T07:06:14;1.6;94.2
43414;DHT22;29013;49.676;8.606;2023-02-28T07:11:37;1.7;93.7
43414;DHT22;29013;49.676;8.606;2023-02-28T07:16:59;1.9;93.5
43414;DHT22;29013;49.676;8.606;2023-02-28T07:22:22;2.1;93.6
43414;DHT22;29013;49.676;8.606;2023-02-28T07:27:47;2.4;94.7
43414;DHT22;29013;49.676;8.606;2023-02-28T07:33:08;2.7;93.4
43414;DHT22;29013;49.676;8.606;2023-02-28T07:38:34;2.8;92.2
43414;DHT22;29013;49.676;8.606;2023-02-28T07:43:54;2.7;92.5
43414;DHT22;29013;49.676;8.606;2023-02-28T07:49:12;2.9;91.7
43414;DHT22;29013;49.676;8.606;2023-02-28T07:54:36;3.1;91.8
43414;DHT22;29013;49.676;8.606;2023-02-28T08:00:02;3.3;91.8
43414;DHT22;29013;49.676;8.606;2023-02-28T08:05:23;3.4;93.1
43414;DHT22;29013;49.676;8.606;2023-02-28T08:10:49;3.6;92.1
43414;DHT22;29013;49.676;8.606;2023-02-28T08:16:13;3.9;91.1
43414;DHT22;29013;49.676;8.606;2023-02-28T08:21:36;4.0;90.7
43414;DHT22;29013;49.676;8.606;2023-02-28T08:27:18;4.0;91.0
43414;DHT22;29013;49.676;8.606;2023-02-28T08:32:40;4.4;90.8
43414;DHT22;29013;49.676;8.606;2023-02-28T08:38:19;4.4;90.4
43414;DHT22;29013;49.676;8.606;2023-02-28T08:43:41;4.7;91.3
43414;DHT22;29013;49.676;8.606;2023-02-28T08:49:05;4.6;89.5
43414;DHT22;29013;49.676;8.606;2023-02-28T08:54:29;4.5;89.8
43414;DHT22;29013;49.676;8.606;2023-02-28T08:59:53;4.3;88.0
43414;DHT22;29013;49.676;8.606;2023-02-28T09:05:18;4.2;88.4
43414;DHT22;29013;49.676;8.606;2023-02-28T09:10:37;4.2;91.1
43414;DHT22;29013;49.676;8.606;2023-02-28T09:16:03;4.2;90.2
43414;DHT22;29013;49.676;8.606;2023-02-28T09:21:27;4.1;90.0
43414;DHT22;29013;49.676;8.606;2023-02-28T09:26:45;4.1;90.0
43414;DHT22;29013;49.676;8.606;2023-02-28T09:32:08;4.1;89.0
43414;DHT22;29013;49.676;8.606;2023-02-28T09:37:57;4.1;90.1
43414;DHT22;29013;49.676;8.606;2023-02-28T09:43:22;4.6;88.9
43414;DHT22;29013;49.676;8.606;2023-02-28T09:48:44;4.8;86.7
43414;DHT22;29013;49.676;8.606;2023-02-28T09:54:08;5.0;87.8
43414;DHT22;29013;49.676;8.606;2023-02-28T09:59:38;5.2;85.2
43414;DHT22;29013;49.676;8.606;2023-02-28T10:05:21;5.0;83.8
43414;DHT22;29013;49.676;8.606;2023-02-28T10:10:40;5.1;86.4
43414;DHT22;29013;49.676;8.606;2023-02-28T10:16:43;4.9;86.8
43414;DHT22;29013;49.676;8.606;2023-02-28T10:22:08;5.3;83.8
43414;DHT22;29013;49.676;8.606;2023-02-28T10:27:34;5.3;84.4
43414;DHT22;29013;49.676;8.606;2023-02-28T10:32:54;5.4;83.1
43414;DHT22;29013;49.676;8.606;2023-02-28T10:38:19;5.5;82.2
43414;DHT22;29013;49.676;8.606;2023-02-28T10:43:38;5.5;80.7
43414;DHT22;29013;49.676;8.606;2023-02-28T10:49:27;5.4;82.3
43414;DHT22;29013;49.676;8.606;2023-02-28T10:54:48;5.4;79.7
43414;DHT22;29013;49.676;8.606;2023-02-28T11:00:16;5.2;82.3
43414;DHT22;29013;49.676;8.606;2023-02-28T11:05:38;5.3;82.6
43414;DHT22;29013;49.676;8.606;2023-02-28T11:11:23;5.3;82.9
43414;DHT22;29013;49.676;8.606;2023-02-28T11:16:44;5.4;82.2
43414;DHT22;29013;49.676;8.606;2023-02-28T11:22:08;5.4;82.7
43414;DHT22;29013;49.676;8.606;2023-02-28T11:27:49;5.3;81.7
43414;DHT22;29013;49.676;8.606;2023-02-28T11:33:28;5.4;81.5
43414;DHT22;29013;49.676;8.606;2023-02-28T11:38:48;5.7;83.1
43414;DHT22;29013;49.676;8.606;2023-02-28T11:50:19;6.0;81.8
43414;DHT22;29013;49.676;8.606;2023-02-28T11:55:36;6.2;81.5
43414;DHT22;29013;49.676;8.606;2023-02-28T12:01:20;6.1;82.0
43414;DHT22;29013;49.676;8.606;2023-02-28T12:06:43;6.3;80.3
43414;DHT22;29013;49.676;8.606;2023-02-28T12:12:10;6.4;80.4
43414;DHT22;29013;49.676;8.606;2023-02-28T12:17:38;6.5;79.2
43414;DHT22;29013;49.676;8.606;2023-02-28T12:23:10;6.7;81.0
43414;DHT22;29013;49.676;8.606;2023-02-28T12:28:57;6.7;78.0
43414;DHT22;29013;49.676;8.606;2023-02-28T12:34:18;7.0;78.8
43414;DHT22;29013;49.676;8.606;2023-02-28T12:39:35;7.0;78.5
43414;DHT22;29013;49.676;8.606;2023-02-28T12:45:00;7.0;79.5
43414;DHT22;29013;49.676;8.606;2023-02-28T12:50:22;7.0;78.9
43414;DHT22;29013;49.676;8.606;2023-02-28T12:55:40;7.1;80.6
43414;DHT22;29013;49.676;8.606;2023-02-28T13:01:29;7.0;76.1
43414;DHT22;29013;49.676;8.606;2023-02-28T13:06:56;7.0;78.1
43414;DHT22;29013;49.676;8.606;2023-02-28T13:12:18;7.0;78.5
43414;DHT22;29013;49.676;8.606;2023-02-28T13:17:42;7.0;79.3
43414;DHT22;29013;49.676;8.606;2023-02-28T13:23:14;7.1;75.5
43414;DHT22;29013;49.676;8.606;2023-02-28T13:35:11;7.4;78.2
43414;DHT22;29013;49.676;8.606;2023-02-28T13:40:33;7.5;76.9
43414;DHT22;29013;49.676;8.606;2023-02-28T13:46:12;7.7;78.3
43414;DHT22;29013;49.676;8.606;2023-02-28T13:51:41;7.8;80.0
43414;DHT22;29013;49.676;8.606;2023-02-28T13:57:20;7.7;75.0
43414;DHT22;29013;49.676;8.606;2023-02-28T14:02:48;7.6;76.1
43414;DHT22;29013;49.676;8.606;2023-02-28T14:08:12;7.5;74.7
43414;DHT22;29013;49.676;8.606;2023-02-28T14:13:43;7.5;76.5
43414;DHT22;29013;49.676;8.606;2023-02-28T14:19:11;7.5;74.5
43414;DHT22;29013;49.676;8.606;2023-02-28T14:24:39;7.3;74.3
43414;DHT22;29013;49.676;8.606;2023-02-28T14:36:09;7.3;76.0
43414;DHT22;29013;49.676;8.606;2023-02-28T14:41:33;7.3;74.7
43414;DHT22;29013;49.676;8.606;2023-02-28T14:46:55;7.3;75.3
43414;DHT22;29013;49.676;8.606;2023-02-28T14:52:14;7.3;75.2
43414;DHT22;29013;49.676;8.606;2023-02-28T14:57:40;7.3;76.5
43414;DHT22;29013;49.676;8.606;2023-02-28T15:03:01;7.2;74.3
43414;DHT22;29013;49.676;8.606;2023-02-28T15:08:26;7.2;75.8
43414;DHT22;29013;49.676;8.606;2023-02-28T15:13:51;7.2;77.4
43414;DHT22;29013;49.676;8.606;2023-02-28T15:19:17;7.1;76.9
43414;DHT22;29013;49.676;8.606;2023-02-28T15:24:41;7.0;77.0
43414;DHT22;29013;49.676;8.606;2023-02-28T15:30:07;6.9;75.4
43414;DHT22;29013;49.676;8.606;2023-02-28T15:35:32;7.0;75.3
43414;DHT22;29013;49.676;8.606;2023-02-28T15:40:51;7.1;75.5
43414;DHT22;29013;49.676;8.606;2023-02-28T15:46:10;7.3;77.1
43414;DHT22;29013;49.676;8.606;2023-02-28T15:51:29;7.3;74.9
43414;DHT22;29013;49.676;8.606;2023-02-28T15:56:47;7.1;78.7
43414;DHT22;29013;49.676;8.606;2023-02-28T16:02:17;7.0;75.1
43414;DHT22;29013;49.676;8.606;2023-02-28T16:07:55;7.0;76.9
43414;DHT22;29013;49.676;8.606;2023-02-28T16:13:15;7.2;75.1
43414;DHT22;29013;49.676;8.606;2023-02-28T16:19:04;7.2;75.7
43414;DHT22;29013;49.676;8.606;2023-02-28T16:24:28;7.4;74.3
43414;DHT22;29013;49.676;8.606;2023-02-28T16:29:53;7.3;75.0
43414;DHT22;29013;49.676;8.606;2023-02-28T16:35:18;7.2;75.6
43414;DHT22;29013;49.676;8.606;2023-02-28T16:40:42;7.0;75.8
43414;DHT22;29013;49.676;8.606;2023-02-28T16:46:08;6.8;75.2
43414;DHT22;29013;49.676;8.606;2023-02-28T16:52:02;6.3;76.2
43414;DHT22;29013;49.676;8.606;2023-02-28T16:57:24;6.1;75.9
43414;DHT22;29013;49.676;8.606;2023-02-28T17:02:50;5.8;76.8
43414;DHT22;29013;49.676;8.606;2023-02-28T17:08:14;5.5;78.0
43414;DHT22;29013;49.676;8.606;2023-02-28T17:13:39;5.2;78.2
43414;DHT22;29013;49.676;8.606;2023-02-28T17:19:02;4.9;78.6
43414;DHT22;29013;49.676;8.606;2023-02-28T17:24:26;4.7;79.5
43414;DHT22;29013;49.676;8.606;2023-02-28T17:29:44;4.5;80.1
43414;DHT22;29013;49.676;8.606;2023-02-28T17:35:03;4.4;80.8
43414;DHT22;29013;49.676;8.606;2023-02-28T17:40:26;4.4;81.8
43414;DHT22;29013;49.676;8.606;2023-02-28T17:46:17;4.3;83.1
43414;DHT22;29013;49.676;8.606;2023-02-28T17:51:34;4.5;83.1
43414;DHT22;29013;49.676;8.606;2023-02-28T17:56:57;4.4;83.6
43414;DHT22;29013;49.676;8.606;2023-02-28T18:02:23;4.3;84.6
43414;DHT22;29013;49.676;8.606;2023-02-28T18:07:44;4.0;83.9
43414;DHT22;29013;49.676;8.606;2023-02-28T18:13:11;3.6;84.4
43414;DHT22;29013;49.676;8.606;2023-02-28T18:18:34;3.4;85.1
43414;DHT22;29013;49.676;8.606;2023-02-28T18:24:00;3.1;86.1
43414;DHT22;29013;49.676;8.606;2023-02-28T18:29:24;3.0;86.8
43414;DHT22;29013;49.676;8.606;2023-02-28T18:34:42;3.0;87.6
43414;DHT22;29013;49.676;8.606;2023-02-28T18:40:13;2.8;87.8
43414;DHT22;29013;49.676;8.606;2023-02-28T18:45:36;2.7;88.3
43414;DHT22;29013;49.676;8.606;2023-02-28T18:50:55;2.6;89.0
43414;DHT22;29013;49.676;8.606;2023-02-28T18:56:16;2.5;89.5
43414;DHT22;29013;49.676;8.606;2023-02-28T19:01:35;2.4;90.0
43414;DHT22;29013;49.676;8.606;2023-02-28T19:06:58;2.2;90.2
43414;DHT22;29013;49.676;8.606;2023-02-28T19:12:23;2.1;90.4
43414;DHT22;29013;49.676;8.606;2023-02-28T19:17:47;2.0;90.6
43414;DHT22;29013;49.676;8.606;2023-02-28T19:23:09;2.0;90.6
43414;DHT22;29013;49.676;8.606;2023-02-28T19:28:33;1.9;90.6
43414;DHT22;29013;49.676;8.606;2023-02-28T19:33:55;1.9;90.7
43414;DHT22;29013;49.676;8.606;2023-02-28T19:39:19;2.2;90.8
43414;DHT22;29013;49.676;8.606;2023-02-28T19:44:43;2.5;90.6
43414;DHT22;29013;49.676;8.606;2023-02-28T19:50:05;2.7;90.4
43414;DHT22;29013;49.676;8.606;2023-02-28T19:55:49;2.9;90.6
43414;DHT22;29013;49.676;8.606;2023-02-28T20:01:37;3.1;90.1
43414;DHT22;29013;49.676;8.606;2023-02-28T20:07:22;3.3;89.1
43414;DHT22;29013;49.676;8.606;2023-02-28T20:12:46;3.3;87.2
43414;DHT22;29013;49.676;8.606;2023-02-28T20:18:05;3.2;87.6
43414;DHT22;29013;49.676;8.606;2023-02-28T20:23:30;3.1;87.6
43414;DHT22;29013;49.676;8.606;2023-02-28T20:28:53;3.0;87.6
43414;DHT22;29013;49.676;8.606;2023-02-28T20:34:17;2.9;87.8
43414;DHT22;29013;49.676;8.606;2023-02-28T20:40:20;2.9;88.8
43414;DHT22;29013;49.676;8.606;2023-02-28T20:45:50;3.1;87.4
43414;DHT22;29013;49.676;8.606;2023-02-28T20:51:33;2.9;88.1
43414;DHT22;29013;49.676;8.606;2023-02-28T20:56:54;2.8;87.5
43414;DHT22;29013;49.676;8.606;2023-02-28T21:02:15;2.6;88.1
43414;DHT22;29013;49.676;8.606;2023-02-28T21:07:34;2.7;88.8
43414;DHT22;29013;49.676;8.606;2023-02-28T21:13:00;2.7;89.3
43414;DHT22;29013;49.676;8.606;2023-02-28T21:18:26;2.7;88.9
43414;DHT22;29013;49.676;8.606;2023-02-28T21:23:50;2.7;89.0
43414;DHT22;29013;49.676;8.606;2023-02-28T21:29:10;2.7;89.2
43414;DHT22;29013;49.676;8.606;2023-02-28T21:34:34;2.7;89.6
43414;DHT22;29013;49.676;8.606;2023-02-28T21:40:17;2.4;90.1
43414;DHT22;29013;49.676;8.606;2023-02-28T21:45:36;2.4;89.6
43414;DHT22;29013;49.676;8.606;2023-02-28T21:51:02;2.3;90.0
43414;DHT22;29013;49.676;8.606;2023-02-28T21:56:59;2.2;90.5
43414;DHT22;29013;49.676;8.606;2023-02-28T22:02:20;2.4;90.0
43414;DHT22;29013;49.676;8.606;2023-02-28T22:07:49;2.2;90.2
43414;DHT22;29013;49.676;8.606;2023-02-28T22:13:16;2.0;90.3
43414;DHT22;29013;49.676;8.606;2023-02-28T22:18:59;1.9;90.8
43414;DHT22;29013;49.676;8.606;2023-02-28T22:24:21;2.0;90.6
43414;DHT22;29013;49.676;8.606;2023-02-28T22:29:46;2.1;90.9
43414;DHT22;29013;49.676;8.606;2023-02-28T22:35:11;2.2;90.7
43414;DHT22;29013;49.676;8.606;2023-02-28T22:40:29;2.3;90.8
43414;DHT22;29013;49.676;8.606;2023-02-28T22:45:48;2.4;90.7
43414;DHT22;29013;49.676;8.606;2023-02-28T22:51:13;2.5;90.5
43414;DHT22;29013;49.676;8.606;2023-02-28T22:56:37;2.5;90.8
43414;DHT22;29013;49.676;8.606;2023-02-28T23:02:02;2.4;90.8
43414;DHT22;29013;49.676;8.606;2023-02-28T23:07:27;2.4;91.1
43414;DHT22;29013;49.676;8.606;2023-02-28T23:12:52;2.4;90.5
43414;DHT22;29013;49.676;8.606;2023-02-28T23:18:33;2.2;91.0
43414;DHT22;29013;49.676;8.606;2023-02-28T23:23:50;2.1;90.7
43414;DHT22;29013;49.676;8.606;2023-02-28T23:29:14;1.9;90.7
43414;DHT22;29013;49.676;8.606;2023-02-28T23:34:32;1.8;91.1
43414;DHT22;29013;49.676;8.606;2023-02-28T23:40:21;1.6;91.6
43414;DHT22;29013;49.676;8.606;2023-02-28T23:45:37;1.6;91.3
43414;DHT22;29013;49.676;8.606;2023-02-28T23:51:06;1.5;91.7
43414;DHT22;29013;49.676;8.606;2023-02-28T23:56:30;1.4;91.8
